Terminal Aerodrome Forecast
Issued by NWS

Home | Current Version | Previous Version | Text Only | Print | Product List | Glossary On
Versions: 1 2 3 4 5 6 7 8 9
137
FTUS45 KVEF 241139
TAFVGT
TAF
KVGT 241139Z 2412/2512 33007KT P6SM BKN250
     FM241500 VRB05KT P6SM SCT150 BKN250
     FM242200 24012G20KT P6SM BKN150
     FM250400 34017G25KT P6SM BKN150=

USA.gov is the U.S. government's official web portal to all federal, state and local government web resources and services.